createdAt,value
2019-05-25T00:01:14.409Z,98.00
2019-05-25T00:03:43.649Z,98.20
2019-05-25T00:06:13.049Z,98.70
2019-05-25T00:08:42.295Z,98.80
2019-05-25T00:11:30.863Z,98.80
2019-05-25T00:14:00.148Z,99.00
2019-05-25T00:16:29.390Z,99.40
2019-05-25T00:18:58.670Z,99.70
2019-05-25T00:21:27.903Z,99.90
2019-05-25T00:24:11.223Z,99.90
2019-05-25T00:26:28.199Z,99.90
2019-05-25T00:28:57.475Z,99.90
2019-05-25T00:31:26.700Z,99.90
2019-05-25T00:33:55.969Z,99.90
2019-05-25T00:36:44.871Z,99.90
2019-05-25T00:39:33.455Z,99.90
2019-05-25T00:42:02.759Z,99.90
2019-05-25T00:44:31.999Z,99.90
2019-05-25T00:47:01.276Z,99.90
2019-05-25T00:49:30.502Z,99.90
2019-05-25T00:51:59.823Z,99.90
2019-05-25T00:54:48.455Z,99.90
2019-05-25T00:57:17.763Z,99.90
2019-05-25T00:59:47.075Z,99.90
2019-05-25T01:02:16.331Z,99.90
2019-05-25T01:04:45.631Z,99.90
2019-05-25T01:07:14.945Z,99.90
2019-05-25T01:10:05.095Z,99.90
2019-05-25T01:12:34.365Z,99.90
2019-05-25T01:15:06.454Z,99.90
2019-05-25T01:17:35.769Z,99.90
2019-05-25T01:20:10.066Z,99.90
2019-05-25T01:22:39.735Z,99.90
2019-05-25T01:25:09.521Z,99.90
2019-05-25T01:27:38.751Z,99.90
2019-05-25T01:30:09.730Z,99.90
2019-05-25T01:32:39.301Z,99.90
2019-05-25T01:35:09.047Z,99.90
2019-05-25T01:37:38.494Z,99.90
2019-05-25T01:40:08.687Z,99.90
2019-05-25T01:42:57.347Z,99.90
2019-05-25T01:45:26.871Z,99.90
2019-05-25T01:47:56.201Z,99.90
2019-05-25T01:50:25.526Z,99.90
2019-05-25T01:52:54.822Z,99.90
2019-05-25T01:55:24.058Z,99.90
2019-05-25T01:58:12.658Z,99.90
2019-05-25T02:00:41.987Z,99.90
2019-05-25T02:03:11.254Z,99.90
2019-05-25T02:05:40.483Z,99.90
2019-05-25T02:08:09.807Z,99.90
2019-05-25T02:10:39.120Z,99.90
2019-05-25T02:13:08.359Z,99.90
2019-05-25T02:15:37.612Z,99.90
2019-05-25T02:18:06.839Z,99.90
2019-05-25T02:20:36.112Z,99.90
2019-05-25T02:23:05.352Z,99.90
2019-05-25T02:25:35.660Z,99.90
2019-05-25T02:28:04.990Z,99.90
2019-05-25T02:30:34.396Z,99.90
2019-05-25T02:33:22.973Z,99.90
2019-05-25T02:35:52.220Z,99.90
2019-05-25T02:38:21.516Z,99.90
2019-05-25T02:41:10.250Z,99.90
2019-05-25T02:43:39.743Z,99.90
2019-05-25T02:46:09.067Z,99.90
2019-05-25T02:48:38.329Z,99.90
2019-05-25T02:51:07.564Z,99.90
2019-05-25T02:53:36.779Z,99.90
2019-05-25T02:56:06.115Z,99.90
2019-05-25T02:58:35.351Z,99.90
2019-05-25T03:01:04.984Z,99.90
2019-05-25T03:03:34.410Z,99.90
2019-05-25T03:06:05.257Z,99.90
2019-05-25T03:08:36.271Z,99.90
2019-05-25T03:11:05.646Z,99.90
2019-05-25T03:13:55.111Z,99.90
2019-05-25T03:16:24.436Z,99.90
2019-05-25T03:18:53.692Z,99.90
2019-05-25T03:21:22.965Z,99.90
2019-05-25T03:23:52.287Z,99.90
2019-05-25T03:26:21.523Z,99.90
2019-05-25T03:29:10.122Z,99.90
2019-05-25T03:31:39.360Z,99.90
2019-05-25T03:34:08.751Z,99.90
2019-05-25T03:36:38.053Z,99.90
2019-05-25T03:39:08.070Z,99.90
2019-05-25T03:41:37.306Z,99.90
2019-05-25T03:44:06.675Z,99.90
2019-05-25T03:46:35.945Z,99.90
2019-05-25T03:49:05.178Z,99.90
2019-05-25T03:51:34.426Z,99.90
2019-05-25T03:54:03.660Z,99.90
2019-05-25T03:56:32.910Z,99.90
2019-05-25T03:59:02.237Z,99.90
2019-05-25T04:01:31.511Z,99.90
2019-05-25T04:04:00.918Z,99.90
2019-05-25T04:06:30.147Z,99.90
2019-05-25T04:08:59.399Z,99.90
2019-05-25T04:11:28.656Z,99.90
2019-05-25T04:13:57.927Z,99.90
2019-05-25T04:16:27.173Z,99.90
2019-05-25T04:18:56.403Z,99.90
2019-05-25T04:21:44.997Z,99.90
2019-05-25T04:24:17.205Z,99.90
2019-05-25T04:26:46.466Z,99.90
2019-05-25T04:29:15.694Z,99.90
2019-05-25T04:31:44.964Z,99.90
2019-05-25T04:34:14.338Z,99.90
2019-05-25T04:36:43.708Z,99.90
2019-05-25T04:39:12.986Z,99.90
2019-05-25T04:41:42.211Z,99.90
2019-05-25T04:44:11.435Z,99.90
2019-05-25T04:46:40.743Z,99.90
2019-05-25T04:49:10.032Z,99.90
2019-05-25T04:51:39.303Z,99.90
2019-05-25T04:54:08.618Z,99.90
2019-05-25T04:56:39.785Z,99.90
2019-05-25T04:59:08.811Z,99.90
2019-05-25T05:01:38.147Z,99.90
2019-05-25T05:04:26.726Z,99.90
2019-05-25T05:06:56.007Z,99.90
2019-05-25T05:09:25.254Z,99.90
2019-05-25T05:11:54.545Z,99.90
2019-05-25T05:14:23.796Z,99.90
2019-05-25T05:16:53.107Z,99.90
2019-05-25T05:19:22.483Z,99.90
2019-05-25T05:21:56.588Z,99.90
2019-05-25T05:24:28.878Z,99.90
2019-05-25T05:26:58.151Z,99.90
2019-05-25T05:29:46.735Z,99.90
2019-05-25T05:32:37.264Z,99.90
2019-05-25T05:35:08.908Z,99.90
2019-05-25T05:37:42.344Z,99.90
2019-05-25T05:40:13.217Z,99.90
2019-05-25T05:42:45.187Z,99.90
2019-05-25T05:45:15.977Z,99.90
2019-05-25T05:48:05.161Z,99.90
2019-05-25T05:50:36.881Z,99.90
2019-05-25T05:53:06.227Z,99.90
2019-05-25T05:55:39.103Z,99.90
2019-05-25T05:58:08.391Z,99.90
2019-05-25T06:00:37.723Z,99.90
2019-05-25T06:03:06.963Z,99.90
2019-05-25T06:05:38.098Z,99.90
2019-05-25T06:08:07.373Z,99.90
2019-05-25T06:10:36.774Z,99.90
2019-05-25T06:13:06.103Z,99.90
2019-05-25T06:15:35.343Z,99.90
2019-05-25T06:18:05.317Z,99.90
2019-05-25T06:20:34.541Z,99.90
2019-05-25T06:23:07.651Z,99.90
2019-05-25T06:25:35.018Z,99.90
2019-05-25T06:28:04.417Z,99.90
2019-05-25T06:30:33.717Z,99.90
2019-05-25T06:33:22.347Z,99.90
2019-05-25T06:35:51.667Z,99.90
2019-05-25T06:38:20.911Z,99.90
2019-05-25T06:40:50.181Z,99.90
2019-05-25T06:43:19.417Z,99.90
2019-05-25T06:45:48.782Z,99.90
2019-05-25T06:48:18.078Z,99.90
2019-05-25T06:50:47.340Z,99.90
2019-05-25T06:53:17.175Z,99.90
2019-05-25T06:55:46.477Z,99.90
2019-05-25T06:58:15.767Z,99.90
2019-05-25T07:00:45.611Z,99.90
2019-05-25T07:03:14.904Z,99.90
2019-05-25T07:05:44.557Z,99.90
2019-05-25T07:08:14.933Z,99.90
2019-05-25T07:10:44.279Z,99.90
2019-05-25T07:13:14.967Z,99.90
2019-05-25T07:15:44.211Z,99.90
2019-05-25T07:18:13.498Z,99.90
2019-05-25T07:20:42.723Z,99.90
2019-05-25T07:23:12.064Z,99.90
2019-05-25T07:25:41.370Z,99.90
2019-05-25T07:28:10.764Z,99.90
2019-05-25T07:30:40.114Z,99.90
2019-05-25T07:33:09.436Z,99.90
2019-05-25T07:35:38.698Z,99.90
2019-05-25T07:38:08.020Z,99.90
2019-05-25T07:40:37.264Z,99.90
2019-05-25T07:43:06.578Z,99.90
2019-05-25T07:45:38.549Z,99.90
2019-05-25T07:48:07.843Z,99.90
2019-05-25T07:50:37.318Z,99.90
2019-05-25T07:53:07.410Z,99.90
2019-05-25T07:55:36.703Z,99.90
2019-05-25T07:58:16.607Z,99.90
2019-05-25T08:00:37.046Z,99.90
2019-05-25T08:03:06.302Z,99.90
2019-05-25T08:05:35.562Z,99.90
2019-05-25T08:08:05.587Z,99.90
2019-05-25T08:10:35.059Z,99.90
2019-05-25T08:13:04.405Z,99.90
2019-05-25T08:15:38.170Z,99.90
2019-05-25T08:18:10.052Z,99.90
2019-05-25T08:20:39.400Z,99.90
2019-05-25T08:23:08.666Z,99.90
2019-05-25T08:25:37.927Z,99.90
2019-05-25T08:28:08.799Z,99.90
2019-05-25T08:30:38.189Z,99.90
2019-05-25T08:33:07.543Z,99.90
2019-05-25T08:35:36.795Z,99.90
2019-05-25T08:38:06.033Z,99.90
2019-05-25T08:40:35.287Z,99.90
2019-05-25T08:43:04.696Z,99.90
2019-05-25T08:45:34.025Z,99.90
2019-05-25T08:48:03.260Z,99.90
2019-05-25T08:50:38.119Z,99.90
2019-05-25T08:53:03.694Z,99.90
2019-05-25T08:55:46.208Z,99.90
2019-05-25T08:58:23.189Z,99.90
2019-05-25T09:00:52.443Z,99.90
2019-05-25T09:03:21.741Z,99.90
2019-05-25T09:05:50.983Z,99.90
2019-05-25T09:08:20.235Z,99.90
2019-05-25T09:10:49.473Z,99.90
2019-05-25T09:13:18.721Z,99.90
2019-05-25T09:15:48.028Z,99.90
2019-05-25T09:18:17.324Z,99.90
2019-05-25T09:20:46.627Z,99.90
2019-05-25T09:23:15.938Z,99.90
2019-05-25T09:25:45.241Z,99.90
2019-05-25T09:28:14.502Z,99.90
2019-05-25T09:30:43.758Z,99.90
2019-05-25T09:33:13.071Z,99.90
2019-05-25T09:35:42.351Z,99.90
2019-05-25T09:38:11.611Z,99.90
2019-05-25T09:40:40.950Z,99.90
2019-05-25T09:43:10.244Z,99.90
2019-05-25T09:45:39.579Z,99.90
2019-05-25T09:48:08.833Z,99.90
2019-05-25T09:50:38.170Z,99.90
2019-05-25T09:53:07.419Z,99.90
2019-05-25T09:55:36.655Z,99.90
2019-05-25T09:58:05.980Z,99.10
2019-05-25T10:00:39.860Z,97.50
2019-05-25T10:03:06.559Z,96.80
2019-05-25T10:05:35.828Z,97.60
2019-05-25T10:08:05.275Z,95.30
2019-05-25T10:10:34.582Z,93.80
2019-05-25T10:13:23.233Z,90.50
2019-05-25T10:15:52.587Z,88.80
2019-05-25T10:18:21.867Z,83.60
2019-05-25T10:20:51.178Z,81.70
2019-05-25T10:23:20.440Z,82.00
2019-05-25T10:25:49.758Z,80.60
2019-05-25T10:28:19.026Z,78.70
2019-05-25T10:30:48.332Z,77.50
2019-05-25T10:33:17.582Z,77.30
2019-05-25T10:35:46.852Z,79.40
2019-05-25T10:38:16.127Z,83.30
2019-05-25T10:40:45.916Z,84.30
2019-05-25T10:43:20.404Z,83.10
2019-05-25T10:45:57.829Z,78.80
2019-05-25T10:51:35.534Z,76.20
2019-05-25T10:54:12.320Z,76.30
2019-05-25T10:56:42.934Z,79.80
2019-05-25T10:59:12.201Z,80.00
2019-05-25T11:01:41.550Z,83.00
2019-05-25T11:04:10.848Z,83.70
2019-05-25T11:06:42.046Z,81.80
2019-05-25T11:09:11.159Z,81.80
2019-05-25T11:11:40.490Z,79.70
2019-05-25T11:14:09.798Z,82.20
2019-05-25T11:16:40.674Z,81.60
2019-05-25T11:19:10.786Z,80.80
2019-05-25T11:21:44.531Z,80.10
2019-05-25T11:24:17.409Z,79.20
2019-05-25T11:26:46.819Z,78.00
2019-05-25T11:29:16.127Z,80.30
2019-05-25T11:31:54.390Z,80.10
2019-05-25T11:34:16.815Z,80.70
2019-05-25T11:36:46.130Z,80.50
2019-05-25T11:39:16.932Z,80.50
2019-05-25T11:41:46.215Z,84.00
2019-05-25T11:44:17.243Z,83.40
2019-05-25T11:46:46.545Z,79.10
2019-05-25T11:49:22.391Z,80.90
2019-05-25T11:51:46.798Z,80.50
2019-05-25T11:54:16.132Z,83.50
2019-05-25T11:56:45.407Z,85.40
2019-05-25T11:59:14.708Z,84.70
2019-05-25T12:01:43.988Z,85.80
2019-05-25T12:04:32.703Z,85.50
2019-05-25T12:07:01.949Z,83.90
2019-05-25T12:09:31.370Z,80.20
2019-05-25T12:12:01.088Z,80.50
2019-05-25T12:14:30.434Z,82.60
2019-05-25T12:16:59.765Z,84.70
2019-05-25T12:19:29.008Z,86.10
2019-05-25T12:21:58.301Z,86.10
2019-05-25T12:24:27.638Z,87.70
2019-05-25T12:26:56.966Z,89.30
2019-05-25T12:29:26.295Z,88.50
2019-05-25T12:32:04.140Z,89.70
2019-05-25T12:34:27.373Z,89.40
2019-05-25T12:36:56.623Z,90.30
2019-05-25T12:39:26.770Z,90.10
2019-05-25T12:41:56.261Z,89.00
2019-05-25T12:44:34.410Z,88.50
2019-05-25T12:47:04.276Z,89.50
2019-05-25T12:49:49.613Z,90.10
2019-05-25T12:52:06.298Z,90.40
2019-05-25T12:55:04.003Z,91.30
2019-05-25T12:57:32.156Z,91.90
2019-05-25T13:00:14.760Z,91.20
2019-05-25T13:02:32.488Z,91.20
2019-05-25T13:05:01.726Z,91.40
2019-05-25T13:07:30.968Z,91.00
2019-05-25T13:10:19.441Z,91.00
2019-05-25T13:12:48.730Z,91.40
2019-05-25T13:15:18.408Z,91.80
2019-05-25T13:17:47.682Z,90.70
2019-05-25T13:20:17.695Z,91.00
2019-05-25T13:22:47.002Z,91.60
2019-05-25T13:25:16.414Z,91.20
2019-05-25T13:27:45.668Z,91.60
2019-05-25T13:30:15.312Z,91.00
2019-05-25T13:32:44.714Z,91.60
2019-05-25T13:35:14.166Z,91.10
2019-05-25T13:37:43.433Z,91.00
2019-05-25T13:40:15.295Z,91.80
2019-05-25T13:42:44.551Z,90.70
2019-05-25T13:45:14.339Z,91.60
2019-05-25T13:47:43.648Z,92.40
2019-05-25T13:50:13.348Z,93.50
2019-05-25T13:52:43.071Z,92.00
2019-05-25T13:55:12.489Z,91.90
2019-05-25T13:57:41.758Z,92.20
2019-05-25T14:00:11.808Z,92.30
2019-05-25T14:02:42.700Z,93.60
2019-05-25T14:05:49.152Z,93.00
2019-05-25T14:08:18.459Z,92.30
2019-05-25T14:11:42.736Z,92.40
2019-05-25T14:14:12.007Z,92.90
2019-05-25T14:16:41.242Z,93.10
2019-05-25T14:19:10.479Z,92.80
2019-05-25T14:21:39.893Z,92.90
2019-05-25T14:24:09.211Z,93.30
2019-05-25T14:26:38.480Z,92.40
2019-05-25T14:29:07.700Z,93.30
2019-05-25T14:31:45.551Z,93.30
2019-05-25T14:34:07.904Z,92.50
2019-05-25T14:36:37.168Z,93.50
2019-05-25T14:39:08.539Z,93.00
2019-05-25T14:41:37.843Z,92.00
2019-05-25T14:44:07.245Z,92.30
2019-05-25T14:46:55.841Z,93.10
2019-05-25T14:49:26.200Z,92.70
2019-05-25T14:51:55.420Z,92.00
2019-05-25T14:54:24.682Z,92.90
2019-05-25T14:56:53.997Z,93.50
2019-05-25T14:59:23.234Z,92.90
2019-05-25T15:02:01.875Z,92.20
2019-05-25T15:04:23.432Z,92.30
2019-05-25T15:06:52.773Z,93.20
2019-05-25T15:09:23.550Z,93.90
2019-05-25T15:12:00.518Z,93.00
2019-05-25T15:14:29.814Z,93.10
2019-05-25T15:16:59.118Z,92.10
2019-05-25T15:20:05.912Z,92.50
2019-05-25T15:22:35.224Z,92.60
2019-05-25T15:25:07.897Z,93.70
2019-05-25T15:27:37.188Z,93.40
2019-05-25T15:30:27.338Z,93.10
2019-05-25T15:32:56.575Z,92.30
2019-05-25T15:35:26.007Z,93.10
2019-05-25T15:37:55.370Z,93.90
2019-05-25T15:40:24.703Z,93.00
2019-05-25T15:42:53.973Z,92.50
2019-05-25T15:45:23.233Z,92.60
2019-05-25T15:47:52.474Z,92.90
2019-05-25T15:50:22.652Z,93.20
2019-05-25T15:52:51.930Z,92.30
2019-05-25T15:55:21.287Z,92.60
2019-05-25T15:57:50.523Z,93.20
2019-05-25T16:00:21.885Z,93.20
2019-05-25T16:02:51.117Z,93.60
2019-05-25T16:05:20.543Z,93.80
2019-05-25T16:07:53.354Z,93.60
2019-05-25T16:10:22.667Z,92.70
2019-05-25T16:12:51.906Z,93.40
2019-05-25T16:15:28.394Z,94.00
2019-05-25T16:17:57.791Z,94.00
2019-05-25T16:20:27.024Z,93.90
2019-05-25T16:22:56.457Z,94.30
2019-05-25T16:25:45.125Z,93.90
2019-05-25T16:28:14.428Z,93.90
2019-05-25T16:30:43.802Z,94.40
2019-05-25T16:33:15.288Z,93.80
2019-05-25T16:35:44.195Z,94.10
2019-05-25T16:38:13.435Z,93.50
2019-05-25T16:40:43.321Z,93.70
2019-05-25T16:43:12.564Z,94.00
2019-05-25T16:45:41.887Z,93.80
2019-05-25T16:48:11.152Z,93.10
2019-05-25T16:50:40.485Z,93.40
2019-05-25T16:53:09.791Z,93.20
2019-05-25T16:55:39.027Z,92.90
2019-05-25T16:58:08.376Z,93.30
2019-05-25T17:00:37.722Z,94.00
2019-05-25T17:03:07.085Z,94.50
2019-05-25T17:05:36.418Z,95.00
2019-05-25T17:08:05.642Z,94.60
2019-05-25T17:10:35.030Z,94.60
2019-05-25T17:13:04.391Z,94.40
2019-05-25T17:15:33.698Z,94.00
2019-05-25T17:18:04.762Z,93.90
2019-05-25T17:20:34.027Z,94.40
2019-05-25T17:23:03.329Z,95.30
2019-05-25T17:25:32.640Z,94.80
2019-05-25T17:28:01.918Z,94.90
2019-05-25T17:30:40.628Z,95.10
2019-05-25T17:33:10.414Z,95.00
2019-05-25T17:35:39.828Z,94.50
2019-05-25T17:38:09.251Z,94.80
2019-05-25T17:40:38.624Z,94.80
2019-05-25T17:43:08.024Z,95.00
2019-05-25T17:45:37.353Z,95.00
2019-05-25T17:48:06.723Z,94.90
2019-05-25T17:50:36.050Z,94.80
2019-05-25T17:53:05.963Z,94.90
2019-05-25T17:55:35.188Z,95.00
2019-05-25T17:58:04.793Z,95.10
2019-05-25T18:00:42.592Z,95.30
2019-05-25T18:03:12.007Z,95.50
2019-05-25T18:05:41.302Z,95.70
2019-05-25T18:08:10.929Z,95.70
2019-05-25T18:10:52.016Z,96.30
2019-05-25T18:13:11.518Z,96.50
2019-05-25T18:15:40.965Z,96.50
2019-05-25T18:18:10.283Z,96.30
2019-05-25T18:20:39.723Z,96.00
2019-05-25T18:23:09.072Z,95.90
2019-05-25T18:25:38.327Z,96.20
2019-05-25T18:28:26.937Z,96.50
2019-05-25T18:31:08.475Z,96.40
2019-05-25T18:33:37.739Z,96.70
2019-05-25T18:36:07.084Z,96.50
2019-05-25T18:38:36.390Z,96.50
2019-05-25T18:41:05.690Z,96.80
2019-05-25T18:43:34.968Z,96.30
2019-05-25T18:46:05.051Z,96.50
2019-05-25T18:48:34.601Z,96.70
2019-05-25T18:51:04.152Z,97.40
2019-05-25T18:53:33.431Z,97.20
2019-05-25T18:56:21.801Z,97.20
2019-05-25T18:58:51.193Z,97.40
2019-05-25T19:01:20.462Z,98.30
2019-05-25T19:03:49.733Z,98.10
2019-05-25T19:06:18.976Z,98.50
2019-05-25T19:08:48.357Z,98.80
2019-05-25T19:11:17.684Z,99.80
2019-05-25T19:13:47.021Z,99.80
2019-05-25T19:16:16.368Z,99.90
2019-05-25T19:18:45.666Z,99.90
2019-05-25T19:21:14.928Z,99.90
2019-05-25T19:23:44.248Z,99.90
2019-05-25T19:26:13.669Z,99.90
2019-05-25T19:28:42.970Z,99.90
2019-05-25T19:31:12.282Z,99.90
2019-05-25T19:33:41.634Z,99.90
2019-05-25T19:36:11.032Z,99.90
2019-05-25T19:38:40.409Z,99.90
2019-05-25T19:41:09.656Z,99.90
2019-05-25T19:43:38.944Z,99.90
2019-05-25T19:46:08.245Z,99.90
2019-05-25T19:48:37.731Z,99.90
2019-05-25T19:51:07.052Z,99.90
2019-05-25T19:53:36.462Z,99.90
2019-05-25T19:56:05.827Z,99.90
2019-05-25T19:58:35.083Z,99.90
2019-05-25T20:01:04.582Z,99.90
2019-05-25T20:03:33.915Z,99.90
2019-05-25T20:06:03.204Z,99.90
2019-05-25T20:08:32.550Z,99.90
2019-05-25T20:11:01.787Z,99.90
2019-05-25T20:13:31.076Z,99.90
2019-05-25T20:16:00.395Z,99.90
2019-05-25T20:18:29.680Z,99.90
2019-05-25T20:21:00.863Z,99.90
2019-05-25T20:23:30.279Z,99.90
2019-05-25T20:25:59.607Z,99.90
2019-05-25T20:28:28.861Z,99.90
2019-05-25T20:30:58.259Z,99.90
2019-05-25T20:33:28.300Z,99.90
2019-05-25T20:35:57.741Z,99.90
2019-05-25T20:38:26.977Z,99.90
2019-05-25T20:40:56.244Z,99.90
2019-05-25T20:43:25.509Z,99.90
2019-05-25T20:46:03.935Z,99.90
2019-05-25T20:48:36.176Z,99.90
2019-05-25T20:51:05.543Z,99.90
2019-05-25T20:53:34.992Z,99.90
2019-05-25T20:56:04.279Z,99.90
2019-05-25T20:58:33.562Z,99.90
2019-05-25T21:01:04.634Z,99.90
2019-05-25T21:03:33.931Z,99.90
2019-05-25T21:06:03.163Z,99.90
2019-05-25T21:08:33.807Z,99.90
2019-05-25T21:11:03.136Z,99.90
2019-05-25T21:13:32.561Z,99.90
2019-05-25T21:16:01.812Z,99.90
2019-05-25T21:18:31.215Z,99.90
2019-05-25T21:21:19.812Z,99.90
2019-05-25T21:23:49.226Z,99.90
2019-05-25T21:26:18.477Z,99.90
2019-05-25T21:28:47.757Z,99.90
2019-05-25T21:31:17.012Z,99.90
2019-05-25T21:33:46.336Z,99.90
2019-05-25T21:36:34.941Z,99.90
2019-05-25T21:39:25.126Z,99.90
2019-05-25T21:41:54.484Z,99.90
2019-05-25T21:44:26.343Z,99.90
2019-05-25T21:46:55.682Z,99.90
2019-05-25T21:49:24.951Z,99.90
2019-05-25T21:51:54.266Z,99.90
2019-05-25T21:54:23.536Z,99.90
2019-05-25T21:57:12.147Z,99.90
2019-05-25T21:59:41.421Z,99.90
2019-05-25T22:02:30.006Z,99.90
2019-05-25T22:04:59.272Z,99.90
2019-05-25T22:07:28.655Z,99.90
2019-05-25T22:09:57.918Z,99.90
2019-05-25T22:12:27.176Z,99.90
2019-05-25T22:14:56.436Z,99.90
2019-05-25T22:17:45.047Z,99.90
2019-05-25T22:20:15.216Z,99.90
2019-05-25T22:22:44.503Z,99.90
2019-05-25T22:25:14.232Z,99.90
2019-05-25T22:27:43.569Z,99.90
2019-05-25T22:30:13.406Z,99.90
2019-05-25T22:32:42.814Z,99.90
2019-05-25T22:35:12.760Z,99.90
2019-05-25T22:37:42.086Z,99.90
2019-05-25T22:40:11.882Z,99.90
2019-05-25T22:42:47.199Z,99.90
2019-05-25T22:45:17.953Z,99.90
2019-05-25T22:47:47.195Z,99.90
2019-05-25T22:50:17.992Z,99.90
2019-05-25T22:52:47.322Z,99.90
2019-05-25T22:55:16.710Z,99.90
2019-05-25T22:57:45.996Z,99.90
2019-05-25T23:00:16.424Z,99.90
2019-05-25T23:02:45.766Z,99.90
2019-05-25T23:05:15.071Z,99.90
2019-05-25T23:07:44.349Z,99.90
2019-05-25T23:10:14.259Z,99.90
2019-05-25T23:13:02.865Z,99.90
2019-05-25T23:15:32.164Z,99.90
2019-05-25T23:18:01.444Z,99.90
2019-05-25T23:20:30.827Z,99.90
2019-05-25T23:23:19.499Z,99.90
2019-05-25T23:25:51.067Z,99.90
2019-05-25T23:28:20.318Z,99.90
2019-05-25T23:30:49.565Z,99.90
2019-05-25T23:33:18.795Z,99.90
2019-05-25T23:36:07.478Z,99.90
2019-05-25T23:38:56.058Z,99.90
2019-05-25T23:41:25.387Z,99.90
2019-05-25T23:43:54.736Z,99.90
2019-05-25T23:46:24.023Z,99.90
2019-05-25T23:48:53.292Z,99.90
2019-05-25T23:51:22.559Z,99.90
2019-05-25T23:53:59.220Z,99.90
2019-05-25T23:56:28.497Z,99.90
2019-05-25T23:58:57.843Z,99.90
